Time;durP1;ratioP1;P1;durP2;ratioP2;P2;SDS_P1;SDS_P2;PMS_P1;PMS_P2;Temp;Humidity;BMP_temperature;BMP_pressure;BME280_temperature;BME280_humidity;BME280_pressure;Samples;Min_cycle;Max_cycle;Signal;HPM_P1;HPM_P2
2023/08/04 00:00:10;;;;;;;13.25;3.53;;;16.10;99.90;;;;;;4983735;28;20038;-45
2023/08/04 00:02:36;;;;;;;16.60;3.22;;;16.10;99.90;;;;;;4985095;28;20046;-45
2023/08/04 00:05:03;;;;;;;10.07;3.00;;;16.10;99.90;;;;;;4979311;28;20053;-44
2023/08/04 00:07:29;;;;;;;9.73;3.25;;;16.10;99.90;;;;;;4964945;28;20038;-46
2023/08/04 00:09:54;;;;;;;9.43;2.95;;;16.10;99.90;;;;;;4967756;28;20623;-46
2023/08/04 00:12:20;;;;;;;11.52;3.40;;;16.10;99.90;;;;;;4977135;28;20091;-46
2023/08/04 00:14:47;;;;;;;10.18;3.03;;;16.10;99.90;;;;;;4964976;28;20502;-45
2023/08/04 00:17:13;;;;;;;8.95;2.83;;;16.00;99.90;;;;;;4962843;28;20043;-44
2023/08/04 00:19:40;;;;;;;13.55;3.20;;;16.10;99.90;;;;;;4965192;28;20042;-45
2023/08/04 00:22:05;;;;;;;8.60;3.03;;;16.00;99.90;;;;;;4964754;28;20439;-45
2023/08/04 00:24:31;;;;;;;12.07;3.20;;;16.00;99.90;;;;;;4965137;28;20131;-45
2023/08/04 00:26:56;;;;;;;11.00;4.43;;;16.10;99.90;;;;;;4984466;28;20050;-45
2023/08/04 00:29:22;;;;;;;13.40;3.35;;;16.00;99.90;;;;;;4983653;28;20034;-46
2023/08/04 00:31:47;;;;;;;8.82;3.50;;;16.00;99.90;;;;;;4982773;28;20405;-46
2023/08/04 00:34:13;;;;;;;9.63;4.38;;;16.00;99.90;;;;;;4983618;28;20042;-46
2023/08/04 00:36:39;;;;;;;10.18;3.65;;;16.00;99.90;;;;;;4984560;28;20112;-45
2023/08/04 00:39:04;;;;;;;9.32;3.42;;;16.00;99.90;;;;;;4983817;28;20153;-45
2023/08/04 00:41:30;;;;;;;9.95;3.60;;;16.00;99.90;;;;;;4983670;28;20104;-45
2023/08/04 00:43:56;;;;;;;16.40;5.60;;;16.00;99.90;;;;;;4983265;28;20486;-45
2023/08/04 00:46:23;;;;;;;10.93;3.88;;;15.90;99.90;;;;;;4984523;28;20058;-45
2023/08/04 00:48:48;;;;;;;12.20;3.42;;;15.90;99.90;;;;;;4983770;28;20046;-45
2023/08/04 00:51:14;;;;;;;15.38;3.25;;;15.90;99.90;;;;;;4983235;28;20042;-46
2023/08/04 00:53:41;;;;;;;11.50;3.50;;;15.90;99.90;;;;;;4965143;28;20051;-46
2023/08/04 00:56:06;;;;;;;8.68;2.95;;;15.90;99.90;;;;;;4966479;28;20046;-45
2023/08/04 00:58:33;;;;;;;12.88;3.40;;;15.80;99.90;;;;;;4973803;28;20051;-44
2023/08/04 01:01:00;;;;;;;10.68;3.00;;;15.80;99.90;;;;;;4964034;28;20144;-45
2023/08/04 01:03:27;;;;;;;8.95;2.85;;;15.80;99.90;;;;;;4964982;28;20125;-45
2023/08/04 01:06:12;;;;;;;9.18;3.13;;;15.80;99.90;;;;;;4964005;28;20105;-45
2023/08/04 01:08:41;;;;;;;10.55;3.30;;;15.80;99.90;;;;;;4962772;28;20105;-46
2023/08/04 01:11:12;;;;;;;9.43;3.30;;;15.80;99.90;;;;;;4963243;28;20097;-46
2023/08/04 01:13:40;;;;;;;10.82;2.65;;;15.90;99.90;;;;;;4962804;28;20050;-46
2023/08/04 01:16:07;;;;;;;8.38;2.65;;;15.80;99.90;;;;;;4963897;28;20053;-46
2023/08/04 01:18:33;;;;;;;10.15;2.70;;;15.70;99.90;;;;;;4964307;28;20490;-45
2023/08/04 01:21:02;;;;;;;9.43;3.00;;;15.90;99.90;;;;;;4962740;28;20043;-45
2023/08/04 01:23:28;;;;;;;6.88;2.80;;;15.60;99.90;;;;;;4964744;28;20038;-45
2023/08/04 01:25:54;;;;;;;10.65;2.70;;;15.60;99.90;;;;;;4964661;28;20409;-45
2023/08/04 01:28:21;;;;;;;10.57;2.90;;;15.50;99.90;;;;;;4963542;28;20477;-45
2023/08/04 01:30:50;;;;;;;10.07;2.63;;;15.50;99.90;;;;;;4964438;28;20676;-45
2023/08/04 01:33:16;;;;;;;9.90;2.70;;;15.50;99.90;;;;;;4964715;28;20406;-44
2023/08/04 01:35:42;;;;;;;8.85;3.00;;;15.40;99.90;;;;;;4964161;28;20047;-45
2023/08/04 01:38:09;;;;;;;7.85;3.03;;;15.40;99.90;;;;;;4964204;28;20035;-46
2023/08/04 01:40:35;;;;;;;11.23;3.55;;;15.40;99.90;;;;;;4964339;28;20446;-45
2023/08/04 01:43:03;;;;;;;9.93;3.50;;;15.30;99.90;;;;;;4963098;28;20047;-45
2023/08/04 01:45:29;;;;;;;8.32;2.83;;;15.30;99.90;;;;;;4964006;28;20042;-45
2023/08/04 01:47:54;;;;;;;11.07;3.28;;;15.20;99.90;;;;;;4964189;28;20057;-45
2023/08/04 01:50:20;;;;;;;10.27;3.33;;;15.20;99.90;;;;;;4964063;28;20039;-45
2023/08/04 01:52:46;;;;;;;7.82;3.00;;;15.20;99.90;;;;;;4963535;28;20038;-45
2023/08/04 01:55:11;;;;;;;7.18;2.88;;;15.10;99.90;;;;;;4964359;28;20047;-45
2023/08/04 01:57:37;;;;;;;12.00;3.08;;;15.10;99.90;;;;;;4963630;28;20045;-45
2023/08/04 02:00:03;;;;;;;9.30;2.95;;;15.10;99.90;;;;;;4962918;28;20580;-45
2023/08/04 02:02:29;;;;;;;7.97;3.10;;;15.10;99.90;;;;;;4962872;28;20042;-44
2023/08/04 02:04:54;;;;;;;8.80;2.97;;;15.00;99.90;;;;;;4964065;28;20034;-45
2023/08/04 02:07:20;;;;;;;11.43;3.35;;;15.00;99.90;;;;;;4963757;28;20046;-45
2023/08/04 02:09:45;;;;;;;7.65;3.10;;;15.00;99.90;;;;;;4963219;28;20043;-46
2023/08/04 02:12:11;;;;;;;10.55;3.13;;;15.00;99.90;;;;;;4963584;28;20511;-44
2023/08/04 02:14:37;;;;;;;11.27;3.40;;;15.00;99.90;;;;;;4963266;28;20130;-45
2023/08/04 02:17:03;;;;;;;11.88;3.15;;;15.00;99.90;;;;;;4963280;28;20057;-45
2023/08/04 02:19:28;;;;;;;8.50;2.92;;;15.00;99.90;;;;;;4963811;28;20061;-45
2023/08/04 02:21:54;;;;;;;8.48;2.72;;;14.90;99.90;;;;;;4963499;28;20358;-44
2023/08/04 02:24:19;;;;;;;13.93;2.75;;;14.90;99.90;;;;;;4963057;28;20059;-46
2023/08/04 02:26:45;;;;;;;9.00;2.63;;;14.90;99.90;;;;;;4963514;28;20150;-44
2023/08/04 02:29:12;;;;;;;18.80;3.00;;;14.90;99.90;;;;;;4962775;28;20051;-45
2023/08/04 02:31:38;;;;;;;9.52;2.70;;;14.90;99.90;;;;;;4962070;28;20042;-44
2023/08/04 02:34:03;;;;;;;10.90;3.22;;;15.00;99.90;;;;;;4963068;28;20047;-44
2023/08/04 02:36:29;;;;;;;9.30;2.67;;;15.00;99.90;;;;;;4963964;28;20042;-45
2023/08/04 02:38:55;;;;;;;10.25;2.58;;;15.00;99.90;;;;;;4963418;28;20065;-46
2023/08/04 02:41:21;;;;;;;9.60;2.75;;;15.00;99.90;;;;;;4963924;28;20414;-46
2023/08/04 02:43:47;;;;;;;10.00;2.72;;;15.00;99.90;;;;;;4967564;28;20116;-45
2023/08/04 02:46:12;;;;;;;10.30;2.92;;;15.00;99.90;;;;;;4967817;28;20053;-44
2023/08/04 02:48:39;;;;;;;8.70;2.80;;;15.00;99.90;;;;;;4967318;28;20090;-45
2023/08/04 02:51:11;;;;;;;11.07;2.78;;;14.90;99.90;;;;;;4966505;28;20087;-45
2023/08/04 02:53:41;;;;;;;8.25;2.45;;;14.90;99.90;;;;;;4967482;28;20121;-45
2023/08/04 02:56:09;;;;;;;6.82;2.65;;;14.90;99.90;;;;;;4966922;28;20145;-45
2023/08/04 02:58:35;;;;;;;6.50;2.60;;;14.90;99.90;;;;;;4966368;28;20398;-45
2023/08/04 03:01:00;;;;;;;8.30;2.47;;;14.90;99.90;;;;;;4974473;28;20034;-45
2023/08/04 03:03:26;;;;;;;11.45;2.63;;;14.90;99.90;;;;;;4970180;28;20059;-44
2023/08/04 03:05:51;;;;;;;8.90;2.40;;;15.00;99.90;;;;;;4966525;28;20340;-46
2023/08/04 03:08:19;;;;;;;11.70;2.63;;;15.00;99.90;;;;;;4967215;28;20445;-46
2023/08/04 03:10:45;;;;;;;6.45;2.15;;;15.10;99.90;;;;;;4967297;28;20069;-44
2023/08/04 03:13:11;;;;;;;8.48;2.40;;;15.20;99.90;;;;;;4964434;28;20050;-45
2023/08/04 03:15:37;;;;;;;11.68;3.28;;;15.10;99.90;;;;;;4966879;28;20038;-45
2023/08/04 03:18:03;;;;;;;8.30;2.45;;;15.20;99.90;;;;;;4967413;28;20413;-45
2023/08/04 03:20:38;;;;;;;8.27;2.40;;;15.30;99.90;;;;;;4967002;28;20091;-45
2023/08/04 03:23:04;;;;;;;7.65;2.17;;;15.30;99.90;;;;;;4966672;28;20397;-45
2023/08/04 03:25:30;;;;;;;6.97;2.10;;;15.30;99.90;;;;;;4966447;28;20186;-45
2023/08/04 03:27:55;;;;;;;7.32;1.75;;;15.30;99.90;;;;;;4965860;28;20689;-45
2023/08/04 03:30:22;;;;;;;8.38;1.92;;;15.30;99.90;;;;;;4966223;28;20051;-44
2023/08/04 03:32:48;;;;;;;6.32;2.20;;;15.40;99.90;;;;;;4967074;28;20082;-45
2023/08/04 03:35:13;;;;;;;7.25;1.80;;;15.20;99.90;;;;;;4966580;28;20047;-45
2023/08/04 03:37:39;;;;;;;6.40;2.10;;;15.30;99.90;;;;;;4965558;28;20059;-45
2023/08/04 03:40:07;;;;;;;8.15;2.30;;;15.30;99.90;;;;;;4966277;28;20062;-46
2023/08/04 03:42:33;;;;;;;7.97;2.60;;;15.20;99.90;;;;;;4965831;28;20047;-46
2023/08/04 03:44:58;;;;;;;8.65;2.53;;;15.20;99.90;;;;;;4966317;28;20321;-45
2023/08/04 03:47:24;;;;;;;8.45;2.55;;;15.20;99.90;;;;;;4966164;28;20066;-45
2023/08/04 03:49:50;;;;;;;8.63;2.70;;;15.00;99.90;;;;;;4965917;28;20065;-45
2023/08/04 03:52:15;;;;;;;6.43;2.63;;;15.00;99.90;;;;;;4965394;28;20039;-45
2023/08/04 03:54:41;;;;;;;9.77;2.63;;;15.00;99.90;;;;;;4965509;28;20482;-44
2023/08/04 03:57:06;;;;;;;13.55;3.17;;;14.90;99.90;;;;;;4965867;28;20558;-46
2023/08/04 03:59:32;;;;;;;5.75;2.33;;;14.90;99.90;;;;;;4965512;28;20401;-45
2023/08/04 04:01:58;;;;;;;6.95;2.80;;;14.90;99.90;;;;;;4965572;28;20045;-46
2023/08/04 04:04:23;;;;;;;6.68;2.85;;;14.90;99.90;;;;;;4964777;28;20047;-44
2023/08/04 04:06:49;;;;;;;10.02;2.70;;;14.90;99.90;;;;;;4966323;28;20057;-45
2023/08/04 04:09:15;;;;;;;7.55;2.67;;;14.90;99.90;;;;;;4965805;28;20332;-45
2023/08/04 04:11:40;;;;;;;8.63;2.83;;;14.90;99.90;;;;;;4965026;28;20062;-45
2023/08/04 04:14:07;;;;;;;7.80;2.35;;;14.90;99.90;;;;;;4964815;28;20046;-46
2023/08/04 04:16:33;;;;;;;8.73;2.65;;;14.90;99.90;;;;;;4965909;28;20042;-45
2023/08/04 04:18:58;;;;;;;10.02;2.70;;;15.00;99.90;;;;;;4965195;28;20081;-45
2023/08/04 04:21:24;;;;;;;9.05;2.60;;;14.90;99.90;;;;;;4965292;28;20039;-45
2023/08/04 04:23:50;;;;;;;10.75;2.63;;;14.90;99.90;;;;;;4965540;28;20042;-45
2023/08/04 04:26:15;;;;;;;11.05;2.50;;;14.90;99.90;;;;;;4948127;28;20540;-44
2023/08/04 04:28:41;;;;;;;5.97;2.38;;;14.80;99.90;;;;;;4947317;28;20569;-45
2023/08/04 04:31:07;;;;;;;9.20;2.35;;;14.90;99.90;;;;;;4965463;28;20541;-45
2023/08/04 04:33:32;;;;;;;8.48;2.22;;;14.90;99.90;;;;;;4965520;28;20374;-46
2023/08/04 04:35:58;;;;;;;7.72;2.20;;;14.90;99.90;;;;;;4964702;28;20098;-46
2023/08/04 04:38:28;;;;;;;8.50;2.95;;;15.10;99.90;;;;;;4965365;28;20043;-45
2023/08/04 04:40:58;;;;;;;6.13;2.28;;;15.00;99.90;;;;;;4965592;28;20138;-46
2023/08/04 04:43:24;;;;;;;7.95;2.25;;;15.00;99.90;;;;;;4963817;28;20179;-45
2023/08/04 04:45:51;;;;;;;8.40;2.42;;;15.00;99.90;;;;;;4965888;28;20047;-45
2023/08/04 04:48:17;;;;;;;6.53;2.63;;;15.00;99.90;;;;;;4965235;28;20442;-45
2023/08/04 04:50:43;;;;;;;7.07;2.67;;;15.00;99.90;;;;;;4964618;28;20051;-45
2023/08/04 04:53:09;;;;;;;5.25;2.58;;;15.00;99.90;;;;;;4964645;28;20039;-45
2023/08/04 04:55:35;;;;;;;4.63;2.22;;;15.10;99.90;;;;;;4965204;28;20453;-44
2023/08/04 04:58:01;;;;;;;5.97;2.25;;;15.10;99.90;;;;;;4964597;28;20241;-46
2023/08/04 05:00:26;;;;;;;5.07;2.20;;;15.20;99.90;;;;;;4964310;28;20096;-45
2023/08/04 05:02:52;;;;;;;4.13;2.40;;;15.30;99.90;;;;;;4965643;28;20171;-45
2023/08/04 05:05:18;;;;;;;5.38;2.08;;;15.20;99.90;;;;;;4964756;28;20125;-45
2023/08/04 05:07:43;;;;;;;7.50;2.28;;;15.30;99.90;;;;;;4964164;28;20042;-44
2023/08/04 05:10:09;;;;;;;5.28;2.00;;;15.30;99.90;;;;;;4964896;28;20042;-45
2023/08/04 05:12:35;;;;;;;4.78;1.90;;;15.20;99.90;;;;;;4963161;28;20086;-44
2023/08/04 05:15:01;;;;;;;3.63;1.50;;;15.20;99.90;;;;;;4964712;28;20069;-44
2023/08/04 05:17:27;;;;;;;3.72;2.00;;;15.20;99.90;;;;;;4964055;28;20053;-45
2023/08/04 05:19:52;;;;;;;5.10;1.90;;;15.10;99.90;;;;;;4965054;28;20418;-44
2023/08/04 05:22:18;;;;;;;4.05;1.75;;;15.10;99.90;;;;;;4964638;28;20044;-44
2023/08/04 05:24:44;;;;;;;4.40;1.63;;;15.00;99.90;;;;;;4963996;28;20525;-46
2023/08/04 05:27:10;;;;;;;10.63;1.90;;;15.00;99.90;;;;;;4963756;28;20060;-45
2023/08/04 05:29:35;;;;;;;4.82;1.80;;;15.00;99.90;;;;;;4964345;28;20134;-44
2023/08/04 05:32:01;;;;;;;4.82;1.90;;;15.00;99.90;;;;;;4964314;28;20398;-46
2023/08/04 05:34:26;;;;;;;5.25;1.85;;;15.00;99.90;;;;;;4963840;28;20101;-46
2023/08/04 05:36:52;;;;;;;3.45;2.13;;;15.00;99.90;;;;;;4964190;28;20418;-45
2023/08/04 05:39:18;;;;;;;5.80;1.73;;;15.00;99.90;;;;;;4964140;28;20047;-45
2023/08/04 05:41:45;;;;;;;4.07;1.65;;;15.10;99.90;;;;;;4963625;28;20100;-45
2023/08/04 05:44:11;;;;;;;4.30;1.60;;;15.10;99.90;;;;;;4963246;28;20395;-45
2023/08/04 05:46:36;;;;;;;2.78;1.52;;;15.10;99.90;;;;;;4963958;28;20049;-45
2023/08/04 05:49:02;;;;;;;3.65;1.70;;;15.10;99.90;;;;;;4963230;28;20366;-45
2023/08/04 05:51:28;;;;;;;8.13;1.77;;;15.20;99.90;;;;;;4962454;28;20053;-45
2023/08/04 05:53:53;;;;;;;3.67;1.90;;;15.20;99.90;;;;;;4964541;28;20351;-45
2023/08/04 05:56:19;;;;;;;4.13;1.80;;;15.30;99.90;;;;;;4964077;28;20198;-45
2023/08/04 05:58:44;;;;;;;3.78;1.90;;;15.30;99.90;;;;;;4962082;28;20075;-44
2023/08/04 06:01:10;;;;;;;3.20;1.60;;;15.50;99.90;;;;;;4963947;28;20048;-45
2023/08/04 06:03:36;;;;;;;2.88;1.60;;;15.50;99.90;;;;;;4963833;28;20077;-44
2023/08/04 06:06:01;;;;;;;3.47;1.63;;;15.60;99.90;;;;;;4963204;28;20039;-44
2023/08/04 06:08:27;;;;;;;3.20;1.30;;;15.60;99.90;;;;;;4963481;28;20090;-45
2023/08/04 06:10:52;;;;;;;2.20;1.38;;;15.70;99.90;;;;;;4963939;28;20449;-44
2023/08/04 06:13:19;;;;;;;2.30;1.50;;;15.70;99.90;;;;;;4963240;28;20097;-45
2023/08/04 06:15:45;;;;;;;4.07;1.50;;;15.70;99.90;;;;;;4962530;28;20065;-45
2023/08/04 06:18:11;;;;;;;2.70;1.60;;;15.70;99.90;;;;;;4963362;28;20621;-45
2023/08/04 06:20:37;;;;;;;5.57;1.80;;;15.80;99.90;;;;;;4963135;28;20065;-45
2023/08/04 06:23:02;;;;;;;5.45;1.95;;;15.80;99.90;;;;;;4962961;28;20631;-44
2023/08/04 06:25:28;;;;;;;2.88;1.50;;;15.80;99.90;;;;;;4963704;28;20054;-45
2023/08/04 06:27:55;;;;;;;5.57;1.60;;;15.90;99.90;;;;;;4963665;28;20043;-44
2023/08/04 06:30:21;;;;;;;2.85;1.33;;;16.00;99.90;;;;;;4963444;28;20439;-45
2023/08/04 06:32:47;;;;;;;3.47;1.67;;;16.00;99.90;;;;;;4962845;28;20051;-44
2023/08/04 06:35:12;;;;;;;3.00;1.70;;;16.00;99.90;;;;;;4963559;28;20078;-45
2023/08/04 06:37:38;;;;;;;4.85;1.50;;;16.20;99.90;;;;;;4963429;28;20105;-45
2023/08/04 06:40:04;;;;;;;4.00;1.70;;;16.00;99.90;;;;;;4962978;28;20409;-44
2023/08/04 06:42:30;;;;;;;4.70;1.90;;;16.00;99.90;;;;;;4962599;28;20125;-44
2023/08/04 06:44:56;;;;;;;4.00;1.92;;;16.10;99.90;;;;;;4964090;28;20109;-48
2023/08/04 06:47:22;;;;;;;5.10;2.17;;;16.20;99.90;;;;;;4961666;28;20576;-46
2023/08/04 06:49:50;;;;;;;5.05;1.98;;;16.20;99.90;;;;;;4963316;28;20073;-48
2023/08/04 06:52:15;;;;;;;3.60;2.10;;;16.40;99.90;;;;;;4963189;28;20050;-44
2023/08/04 06:54:41;;;;;;;4.68;1.92;;;16.50;99.90;;;;;;4963686;28;20058;-44
2023/08/04 06:57:06;;;;;;;3.40;1.83;;;16.70;99.90;;;;;;4962306;28;20220;-44
2023/08/04 06:59:33;;;;;;;4.22;1.88;;;16.70;99.90;;;;;;4963380;28;20039;-45
2023/08/04 07:01:58;;;;;;;5.88;2.03;;;16.70;99.90;;;;;;4971632;28;20043;-45
2023/08/04 07:04:24;;;;;;;4.38;1.88;;;16.60;99.90;;;;;;4970775;28;20069;-46
2023/08/04 07:06:50;;;;;;;4.22;2.00;;;16.60;99.90;;;;;;4975125;28;20264;-45
2023/08/04 07:09:15;;;;;;;6.80;2.17;;;16.60;99.90;;;;;;4964077;28;20046;-45
2023/08/04 07:11:41;;;;;;;5.82;2.20;;;16.60;99.90;;;;;;4961968;28;20054;-46
2023/08/04 07:14:07;;;;;;;7.65;2.33;;;16.60;99.90;;;;;;4962763;28;20046;-45
2023/08/04 07:16:33;;;;;;;5.20;2.20;;;16.60;99.90;;;;;;4962765;28;20050;-46
2023/08/04 07:18:59;;;;;;;4.15;1.90;;;16.70;99.90;;;;;;4963526;28;20510;-46
2023/08/04 07:21:24;;;;;;;8.43;2.22;;;16.80;99.90;;;;;;4962780;28;20046;-46
2023/08/04 07:23:50;;;;;;;7.82;2.20;;;16.80;99.90;;;;;;4962916;28;20375;-46
2023/08/04 07:26:15;;;;;;;4.63;2.38;;;16.80;99.90;;;;;;4962775;28;20438;-45
2023/08/04 07:28:41;;;;;;;4.88;1.70;;;16.80;99.90;;;;;;4965657;28;20038;-45
2023/08/04 07:31:08;;;;;;;4.57;2.00;;;16.80;99.90;;;;;;4964807;28;20540;-45
2023/08/04 07:33:35;;;;;;;5.15;2.10;;;16.80;99.90;;;;;;4968824;28;20043;-45
2023/08/04 07:36:01;;;;;;;3.47;1.80;;;16.90;99.90;;;;;;4969601;28;20511;-45
2023/08/04 07:38:28;;;;;;;4.78;2.22;;;16.80;99.90;;;;;;4969146;28;20035;-45
2023/08/04 07:40:55;;;;;;;7.57;2.13;;;17.00;99.90;;;;;;4969064;28;20085;-45
2023/08/04 07:43:21;;;;;;;6.85;2.00;;;17.00;99.90;;;;;;4968043;28;20446;-46
2023/08/04 07:45:46;;;;;;;5.72;2.35;;;16.90;99.90;;;;;;4968612;28;20054;-46
2023/08/04 07:48:12;;;;;;;3.95;2.13;;;17.00;99.90;;;;;;4968914;28;20078;-47
2023/08/04 07:50:43;;;;;;;5.20;1.58;;;17.10;99.90;;;;;;4968698;28;20498;-45
2023/08/04 07:53:09;;;;;;;5.72;1.88;;;17.20;99.90;;;;;;4972420;28;20060;-47
2023/08/04 07:55:36;;;;;;;4.40;1.98;;;17.40;99.90;;;;;;4981930;28;20542;-45
2023/08/04 07:58:02;;;;;;;4.40;2.08;;;17.50;99.90;;;;;;4979701;28;20046;-55
2023/08/04 08:00:28;;;;;;;6.20;2.10;;;17.60;99.90;;;;;;4968467;28;20047;-55
2023/08/04 08:02:54;;;;;;;4.53;1.63;;;17.70;99.90;;;;;;4968533;28;20035;-55
2023/08/04 08:05:19;;;;;;;4.90;1.73;;;17.70;99.90;;;;;;4974150;28;20034;-55
2023/08/04 08:07:45;;;;;;;4.82;1.58;;;17.90;99.90;;;;;;4977674;28;20626;-56
2023/08/04 08:10:11;;;;;;;5.07;2.15;;;18.10;99.90;;;;;;4968261;28;20504;-55
2023/08/04 08:12:36;;;;;;;3.92;1.67;;;18.20;99.90;;;;;;4975818;28;20047;-54
2023/08/04 08:15:05;;;;;;;5.60;2.10;;;18.20;99.90;;;;;;4987745;28;20092;-55
2023/08/04 08:17:31;;;;;;;4.72;1.88;;;18.30;99.90;;;;;;4988554;28;20069;-55
2023/08/04 08:19:56;;;;;;;4.60;1.90;;;18.60;99.90;;;;;;4988310;28;20129;-55
2023/08/04 08:22:22;;;;;;;6.82;2.33;;;18.70;99.90;;;;;;4968611;28;20125;-55
2023/08/04 08:24:53;;;;;;;6.45;1.90;;;18.80;99.90;;;;;;4968167;28;20499;-55
2023/08/04 08:27:18;;;;;;;7.13;1.83;;;18.80;99.90;;;;;;4967000;28;20046;-55
2023/08/04 08:29:44;;;;;;;4.65;2.05;;;18.80;99.90;;;;;;4968131;28;20634;-56
2023/08/04 08:32:09;;;;;;;5.20;2.00;;;18.70;99.90;;;;;;4968699;28;20604;-55
2023/08/04 08:34:35;;;;;;;3.65;1.90;;;18.70;99.90;;;;;;4982930;28;20045;-55
2023/08/04 08:37:02;;;;;;;3.58;1.70;;;18.90;99.90;;;;;;4987890;28;20490;-56
2023/08/04 08:39:29;;;;;;;5.93;2.03;;;18.60;99.90;;;;;;4970381;28;20126;-55
2023/08/04 08:41:57;;;;;;;6.68;2.40;;;19.00;99.90;;;;;;4981087;28;20108;-55
2023/08/04 08:44:22;;;;;;;4.57;1.65;;;18.90;99.90;;;;;;4967870;28;20949;-55
2023/08/04 08:46:49;;;;;;;5.65;1.85;;;18.80;99.90;;;;;;4968105;28;20146;-56
2023/08/04 08:49:15;;;;;;;7.35;1.90;;;18.70;99.90;;;;;;4968114;28;20039;-55
2023/08/04 08:51:48;;;;;;;5.55;1.65;;;18.60;99.90;;;;;;4968374;28;20468;-55
2023/08/04 08:54:15;;;;;;;5.18;1.70;;;18.50;99.90;;;;;;4987223;28;20189;-56
2023/08/04 08:56:41;;;;;;;7.45;1.60;;;18.40;99.90;;;;;;4985253;28;20050;-55
2023/08/04 08:59:07;;;;;;;5.70;1.65;;;18.40;99.90;;;;;;4984067;28;20045;-56
2023/08/04 09:01:34;;;;;;;4.25;1.70;;;18.40;99.90;;;;;;4980107;28;20045;-55
2023/08/04 09:04:00;;;;;;;3.80;1.40;;;18.40;99.90;;;;;;4981574;28;20053;-55
2023/08/04 09:06:26;;;;;;;5.97;1.48;;;18.40;99.90;;;;;;4977715;28;20038;-55
2023/08/04 09:08:54;;;;;;;8.02;1.42;;;18.40;99.90;;;;;;4976911;28;20637;-55
2023/08/04 09:11:19;;;;;;;6.65;1.52;;;18.40;99.90;;;;;;4949926;28;20500;-54
2023/08/04 09:13:46;;;;;;;5.78;1.30;;;18.40;99.90;;;;;;4985609;28;20046;-54
2023/08/04 09:16:15;;;;;;;4.32;1.45;;;18.50;99.90;;;;;;4985219;28;20129;-54
2023/08/04 09:18:42;;;;;;;4.20;1.10;;;18.70;99.90;;;;;;4982198;28;20042;-56
2023/08/04 09:21:07;;;;;;;6.50;1.33;;;18.80;99.90;;;;;;4976805;28;20054;-55
2023/08/04 09:23:54;;;;;;;5.43;1.35;;;18.90;99.90;;;;;;4975519;28;20046;-55
2023/08/04 09:26:19;;;;;;;4.10;1.00;;;18.90;99.90;;;;;;4981217;28;20046;-55
2023/08/04 09:28:46;;;;;;;5.35;1.42;;;18.90;99.90;;;;;;4968470;28;20068;-55
2023/08/04 09:31:13;;;;;;;5.10;1.58;;;19.00;99.90;;;;;;4986190;28;20046;-57
2023/08/04 09:33:43;;;;;;;3.60;1.30;;;19.10;99.90;;;;;;4978069;28;20042;-56
2023/08/04 09:36:13;;;;;;;7.13;1.30;;;19.00;99.90;;;;;;4979641;28;20042;-55
2023/08/04 09:38:40;;;;;;;3.38;1.13;;;18.90;99.90;;;;;;4986442;28;20089;-55
2023/08/04 09:41:12;;;;;;;4.07;1.10;;;18.80;99.90;;;;;;4986355;28;20054;-56
2023/08/04 09:43:48;;;;;;;4.35;1.30;;;18.70;99.90;;;;;;4983944;28;20176;-56
2023/08/04 09:46:14;;;;;;;3.15;1.10;;;18.60;99.90;;;;;;4986127;28;20397;-57
2023/08/04 09:48:40;;;;;;;4.45;1.30;;;18.70;99.90;;;;;;4985709;28;20155;-57
2023/08/04 09:51:10;;;;;;;5.35;1.30;;;18.80;99.90;;;;;;4985029;28;20046;-55
2023/08/04 09:53:47;;;;;;;6.20;1.58;;;18.80;99.90;;;;;;4985203;28;20088;-56
2023/08/04 09:56:15;;;;;;;4.90;1.25;;;19.10;99.90;;;;;;4972227;28;20541;-56
2023/08/04 09:58:41;;;;;;;2.30;1.10;;;19.30;99.90;;;;;;4964815;28;20049;-55
2023/08/04 10:01:07;;;;;;;4.00;1.42;;;19.80;99.90;;;;;;4967670;28;20035;-56
2023/08/04 10:03:35;;;;;;;5.80;1.58;;;20.00;99.90;;;;;;4984498;28;20504;-56
2023/08/04 10:06:01;;;;;;;4.43;1.42;;;20.20;99.90;;;;;;4975887;28;20070;-55
2023/08/04 10:08:31;;;;;;;5.20;1.73;;;20.60;99.90;;;;;;4972013;28;20103;-56
2023/08/04 10:10:58;;;;;;;3.75;1.23;;;20.90;99.90;;;;;;4975092;28;20055;-56
2023/08/04 10:13:31;;;;;;;6.38;1.83;;;21.00;99.90;;;;;;4969747;28;21527;-56
2023/08/04 10:15:58;;;;;;;5.10;1.80;;;21.20;99.90;;;;;;4969625;28;20055;-56
2023/08/04 10:18:46;;;;;;;8.07;1.73;;;21.40;99.90;;;;;;4982312;28;20034;-55
2023/08/04 10:21:12;;;;;;;10.02;2.05;;;21.20;99.90;;;;;;4977335;28;20070;-54
2023/08/04 10:23:37;;;;;;;5.68;1.70;;;20.80;99.90;;;;;;4977246;28;20054;-55
2023/08/04 10:26:03;;;;;;;5.90;1.50;;;20.60;99.90;;;;;;4982216;28;20045;-57
2023/08/04 10:28:32;;;;;;;7.13;1.77;;;20.50;99.90;;;;;;4964251;28;20461;-55
2023/08/04 10:31:05;;;;;;;7.47;2.10;;;20.30;99.90;;;;;;4962955;28;20049;-54
2023/08/04 10:33:31;;;;;;;6.53;1.90;;;20.20;99.90;;;;;;4964008;28;20089;-53
2023/08/04 10:36:23;;;;;;;6.13;1.70;;;20.20;99.90;;;;;;4963012;28;20334;-46
2023/08/04 10:38:54;;;;;;;7.82;1.40;;;20.10;99.90;;;;;;4961647;28;20055;-47
2023/08/04 10:41:20;;;;;;;8.43;1.95;;;20.10;99.90;;;;;;4963516;28;20089;-46
2023/08/04 10:44:00;;;;;;;7.35;1.70;;;20.20;99.90;;;;;;4964122;28;20359;-47
2023/08/04 10:46:25;;;;;;;5.70;1.60;;;20.60;99.90;;;;;;4962011;28;20043;-47
2023/08/04 10:48:51;;;;;;;7.72;1.95;;;21.00;99.90;;;;;;4963714;28;20141;-45
2023/08/04 10:51:17;;;;;;;7.07;1.63;;;21.50;99.90;;;;;;4963643;28;20074;-46
2023/08/04 10:53:43;;;;;;;6.13;1.70;;;21.90;99.90;;;;;;4963577;28;20393;-46
2023/08/04 10:56:09;;;;;;;3.45;1.10;;;22.30;99.90;;;;;;4963641;28;20097;-45
2023/08/04 10:58:35;;;;;;;2.05;0.88;;;22.50;99.90;;;;;;4964256;28;20043;-47
2023/08/04 11:01:01;;;;;;;4.32;1.08;;;22.80;99.90;;;;;;4964200;28;20054;-47
2023/08/04 11:03:27;;;;;;;6.18;1.30;;;22.60;99.90;;;;;;4965561;28;20126;-47
2023/08/04 11:05:54;;;;;;;4.95;1.45;;;22.40;99.90;;;;;;4967643;28;20137;-47
2023/08/04 11:08:20;;;;;;;6.50;1.23;;;22.10;99.90;;;;;;4967787;28;20039;-50
2023/08/04 11:11:06;;;;;;;3.90;1.20;;;21.80;99.90;;;;;;4977599;28;20105;-47
2023/08/04 11:13:32;;;;;;;4.55;1.30;;;21.60;99.90;;;;;;4969836;28;20102;-48
2023/08/04 11:16:02;;;;;;;4.13;1.10;;;21.70;99.90;;;;;;4980599;28;20409;-48
2023/08/04 11:18:32;;;;;;;3.42;1.02;;;21.90;99.90;;;;;;4983496;28;20066;-48
2023/08/04 11:21:01;;;;;;;4.57;1.17;;;21.90;99.90;;;;;;4967486;28;20065;-49
2023/08/04 11:23:30;;;;;;;5.63;1.25;;;21.70;99.90;;;;;;4966960;28;20043;-46
2023/08/04 11:25:57;;;;;;;5.22;1.13;;;21.40;99.90;;;;;;4966593;28;20058;-47
2023/08/04 11:28:23;;;;;;;5.10;1.50;;;21.10;99.90;;;;;;4986719;28;20049;-46
2023/08/04 11:30:49;;;;;;;4.32;1.23;;;20.90;99.90;;;;;;4981503;28;20039;-47
2023/08/04 11:33:18;;;;;;;3.97;1.20;;;20.90;99.90;;;;;;4967565;28;20047;-46
2023/08/04 11:35:45;;;;;;;5.15;1.00;;;21.10;99.90;;;;;;4967342;28;20105;-47
2023/08/04 11:38:11;;;;;;;3.55;1.08;;;21.30;99.90;;;;;;4967117;28;20045;-47
2023/08/04 11:40:52;;;;;;;5.55;1.38;;;21.50;99.90;;;;;;4967142;28;20221;-47
2023/08/04 11:43:18;;;;;;;6.22;0.90;;;21.40;99.90;;;;;;4967077;28;20093;-47
2023/08/04 11:45:48;;;;;;;3.10;0.90;;;21.40;99.90;;;;;;4965059;28;20231;-46
2023/08/04 11:48:14;;;;;;;2.80;0.82;;;21.40;99.90;;;;;;4969660;28;20125;-47
2023/08/04 11:50:40;;;;;;;2.97;0.90;;;21.40;99.90;;;;;;4984050;28;20145;-46
2023/08/04 11:53:05;;;;;;;4.53;1.10;;;21.50;99.90;;;;;;4986181;28;20080;-47
2023/08/04 11:55:33;;;;;;;2.35;0.80;;;21.60;99.90;;;;;;4977557;28;20494;-47
2023/08/04 11:57:59;;;;;;;3.03;0.93;;;21.70;99.90;;;;;;4966213;28;20050;-47
2023/08/04 12:00:38;;;;;;;3.72;1.05;;;21.70;99.90;;;;;;4965265;28;20458;-46
2023/08/04 12:03:04;;;;;;;3.38;1.00;;;21.60;99.90;;;;;;4966717;28;20038;-47
2023/08/04 12:05:31;;;;;;;4.03;1.10;;;21.70;99.90;;;;;;4967143;28;20462;-47
2023/08/04 12:08:13;;;;;;;3.83;1.20;;;22.00;99.90;;;;;;4965837;28;20303;-47
2023/08/04 12:10:39;;;;;;;2.40;0.98;;;22.50;99.90;;;;;;4966591;28;20059;-47
2023/08/04 12:13:05;;;;;;;4.05;0.98;;;22.60;99.90;;;;;;4963903;28;20085;-46
2023/08/04 12:15:51;;;;;;;4.45;1.00;;;22.60;99.90;;;;;;4969570;28;20051;-46
2023/08/04 12:18:28;;;;;;;2.78;0.77;;;22.40;99.90;;;;;;4966717;28;20050;-46
2023/08/04 12:20:54;;;;;;;2.30;0.85;;;22.20;99.90;;;;;;4965966;28;20297;-45
2023/08/04 12:23:19;;;;;;;2.83;0.80;;;22.00;99.90;;;;;;4965247;28;20039;-45
2023/08/04 12:25:45;;;;;;;2.67;0.90;;;22.20;99.90;;;;;;4964607;28;20430;-48
2023/08/04 12:28:11;;;;;;;6.20;1.10;;;22.30;99.90;;;;;;4965998;28;20039;-46
2023/08/04 12:30:37;;;;;;;3.03;1.00;;;22.40;99.90;;;;;;4966231;28;20398;-46
2023/08/04 12:33:03;;;;;;;3.22;0.90;;;22.30;99.90;;;;;;4965922;28;20322;-45
2023/08/04 12:35:29;;;;;;;2.20;0.82;;;22.20;99.90;;;;;;4966134;28;20093;-47
2023/08/04 12:37:55;;;;;;;4.80;0.80;;;22.10;99.90;;;;;;4966010;28;20453;-45
2023/08/04 12:40:20;;;;;;;5.00;1.20;;;22.10;99.90;;;;;;4966197;28;20291;-46
2023/08/04 12:42:46;;;;;;;3.20;1.00;;;22.10;99.90;;;;;;4965366;28;20054;-47